Time;durP1;ratioP1;P1;durP2;ratioP2;P2;SDS_P1;SDS_P2;PMS_P1;PMS_P2;Temp;Humidity;BMP_temperature;BMP_pressure;BME280_temperature;BME280_humidity;BME280_pressure;Samples;Min_cycle;Max_cycle;Signal;HPM_P1;HPM_P2
2021/07/25 00:01:34;;;;;;;6.10;4.90;;;;;;;27.57;36.99;101166.78;143727;621;46008;-70
2021/07/25 00:04:01;;;;;;;9.85;4.80;;;;;;;27.54;37.38;101166.25;143726;683;45927;-70
2021/07/25 00:06:28;;;;;;;7.82;5.05;;;;;;;27.50;36.82;101167.16;143727;713;47002;-70
2021/07/25 00:08:55;;;;;;;10.70;5.12;;;;;;;27.51;37.19;101166.84;143724;729;47022;-70
2021/07/25 00:11:23;;;;;;;6.32;4.80;;;;;;;27.49;36.78;101162.78;143723;568;48004;-72
2021/07/25 00:13:52;;;;;;;7.07;4.82;;;;;;;27.50;36.95;101169.94;143725;722;46006;-70
2021/07/25 00:16:20;;;;;;;7.78;4.80;;;;;;;27.47;36.62;101165.81;143726;731;47007;-69
2021/07/25 00:18:47;;;;;;;11.57;4.45;;;;;;;27.49;36.47;101165.53;143724;670;47010;-69
2021/07/25 00:21:14;;;;;;;7.43;4.62;;;;;;;27.48;36.88;101161.94;143724;621;47006;-70
2021/07/25 00:23:47;;;;;;;9.15;4.50;;;;;;;27.49;36.31;101160.00;143725;584;45922;-70
2021/07/25 00:26:15;;;;;;;5.85;4.40;;;;;;;27.51;36.18;101164.09;143727;567;47002;-70
2021/07/25 00:28:43;;;;;;;12.57;5.35;;;;;;;27.48;36.40;101153.66;143723;611;47011;-69
2021/07/25 00:31:10;;;;;;;10.80;5.03;;;;;;;27.46;35.88;101157.84;143725;589;47002;-70
2021/07/25 00:33:37;;;;;;;6.20;4.60;;;;;;;27.45;35.76;101154.22;143724;659;46008;-70
2021/07/25 00:36:06;;;;;;;8.60;4.50;;;;;;;27.42;35.90;101154.88;143720;695;51004;-69
2021/07/25 00:38:34;;;;;;;10.43;4.70;;;;;;;27.39;36.56;101155.47;143724;703;47022;-69
2021/07/25 00:41:16;;;;;;;7.78;4.62;;;;;;;27.33;36.05;101151.97;143722;618;48006;-69
2021/07/25 00:43:44;;;;;;;7.80;4.28;;;;;;;27.29;36.43;101150.09;143719;658;48002;-69
2021/07/25 00:46:18;;;;;;;4.95;3.42;;;;;;;27.29;35.57;101153.69;143727;671;47002;-70
2021/07/25 00:48:46;;;;;;;6.75;4.53;;;;;;;27.36;35.97;101156.88;143723;579;47026;-70
2021/07/25 00:51:13;;;;;;;5.15;4.45;;;;;;;27.41;35.67;101153.22;143725;567;47006;-70
2021/07/25 00:53:42;;;;;;;5.93;3.95;;;;;;;27.43;35.56;101152.91;143727;579;45009;-69
2021/07/25 00:56:10;;;;;;;6.50;4.07;;;;;;;27.28;35.86;101151.22;143724;630;47006;-70
2021/07/25 00:58:42;;;;;;;6.47;3.80;;;;;;;27.31;35.60;101154.22;143723;613;47010;-70
2021/07/25 01:01:10;;;;;;;7.75;4.22;;;;;;;27.34;36.75;101161.88;143726;632;47004;-70
2021/07/25 01:04:23;;;;;;;6.40;4.60;;;;;;;27.32;36.39;101164.12;143727;616;46002;-70
2021/07/25 01:07:13;;;;;;;13.65;5.15;;;;;;;27.29;37.88;101163.88;143727;598;47006;-71
2021/07/25 01:10:14;;;;;;;9.20;4.75;;;;;;;27.24;37.30;101171.16;143719;600;48017;-70
2021/07/25 01:13:17;;;;;;;6.22;4.30;;;;;;;27.27;36.48;101161.44;143726;590;47002;-70
2021/07/25 01:15:45;;;;;;;6.70;4.57;;;;;;;27.22;37.47;101162.34;143727;703;45925;-70
2021/07/25 01:18:13;;;;;;;11.25;5.20;;;;;;;27.19;37.96;101165.72;143728;611;47006;-69
2021/07/25 01:20:40;;;;;;;11.60;5.15;;;;;;;27.22;37.35;101162.34;143722;574;48002;-69
2021/07/25 01:23:07;;;;;;;5.95;4.55;;;;;;;27.24;36.99;101170.31;143725;700;47002;-70
2021/07/25 01:25:35;;;;;;;8.10;4.15;;;;;;;27.23;37.29;101161.25;143726;585;46004;-70
2021/07/25 01:28:16;;;;;;;10.27;4.30;;;;;;;27.20;37.16;101167.34;143729;567;47002;-70
2021/07/25 01:30:52;;;;;;;9.93;4.68;;;;;;;27.13;37.43;101164.16;143724;656;47008;-69
2021/07/25 01:33:23;;;;;;;7.28;3.83;;;;;;;27.14;36.75;101168.53;143725;619;47004;-70
2021/07/25 01:35:51;;;;;;;7.10;4.05;;;;;;;27.20;36.32;101167.34;143728;616;46004;-69
2021/07/25 01:38:19;;;;;;;6.57;4.28;;;;;;;27.24;37.46;101182.19;143729;627;47002;-69
2021/07/25 01:41:04;;;;;;;7.47;4.53;;;;;;;27.20;37.31;101175.63;143724;583;47010;-69
2021/07/25 01:43:36;;;;;;;5.05;4.18;;;;;;;27.17;37.52;101176.22;143724;583;47002;-69
2021/07/25 01:46:04;;;;;;;9.63;4.43;;;;;;;27.16;37.17;101171.81;143723;629;47000;-69
2021/07/25 01:48:31;;;;;;;9.27;4.22;;;;;;;27.21;36.66;101171.75;143728;655;47004;-70
2021/07/25 01:50:58;;;;;;;7.62;4.47;;;;;;;27.24;36.99;101192.38;143721;567;47927;-69
2021/07/25 01:53:26;;;;;;;11.27;4.53;;;;;;;27.23;36.99;101193.50;143725;608;47002;-70
2021/07/25 01:55:53;;;;;;;7.53;4.03;;;;;;;27.20;36.52;101192.16;143726;618;45925;-69
2021/07/25 01:58:20;;;;;;;5.40;3.80;;;;;;;27.15;36.63;101185.91;143728;589;47004;-70
2021/07/25 02:00:47;;;;;;;7.43;4.47;;;;;;;27.18;37.02;101179.81;143722;591;48023;-71
2021/07/25 02:03:24;;;;;;;7.50;4.32;;;;;;;27.21;37.09;101184.69;143726;566;47002;-70
2021/07/25 02:05:53;;;;;;;5.65;3.70;;;;;;;27.20;37.10;101183.06;143724;620;48004;-70
2021/07/25 02:08:21;;;;;;;4.47;3.83;;;;;;;27.17;37.29;101183.69;143727;684;47002;-70
2021/07/25 02:10:51;;;;;;;5.43;4.10;;;;;;;27.13;37.73;101188.16;143725;650;47010;-70
2021/07/25 02:13:20;;;;;;;9.38;4.18;;;;;;;27.07;37.83;101190.19;143725;583;47006;-70
2021/07/25 02:15:47;;;;;;;6.37;4.45;;;;;;;27.06;37.75;101189.34;143720;609;48922;-70
2021/07/25 02:18:14;;;;;;;7.60;4.35;;;;;;;27.04;37.63;101190.78;143726;573;47002;-69
2021/07/25 02:20:42;;;;;;;7.35;3.85;;;;;;;27.07;37.27;101179.97;143726;581;47010;-69
2021/07/25 02:23:10;;;;;;;4.95;4.37;;;;;;;27.08;38.06;101184.34;143724;582;47002;-70
2021/07/25 02:25:38;;;;;;;6.03;4.65;;;;;;;27.13;37.83;101179.87;143723;575;47000;-70
2021/07/25 02:28:08;;;;;;;6.15;4.28;;;;;;;27.09;38.15;101183.25;143730;585;47004;-70
2021/07/25 02:30:36;;;;;;;10.15;4.93;;;;;;;27.10;37.93;101181.28;143726;583;46010;-69
2021/07/25 02:33:05;;;;;;;6.72;4.25;;;;;;;27.11;38.51;101177.41;143723;580;47004;-70
2021/07/25 02:35:33;;;;;;;8.95;5.03;;;;;;;27.11;38.09;101182.94;143725;588;46004;-70
2021/07/25 02:38:00;;;;;;;5.80;4.22;;;;;;;27.07;37.63;101171.69;143730;592;46006;-70
2021/07/25 02:40:27;;;;;;;8.68;4.45;;;;;;;27.07;38.38;101179.97;143724;566;48008;-70
2021/07/25 02:42:55;;;;;;;6.82;5.03;;;;;;;27.05;37.12;101173.13;143726;688;47003;-69
2021/07/25 02:45:22;;;;;;;7.35;3.85;;;;;;;27.10;37.57;101175.78;143728;669;45928;-70
2021/07/25 02:47:50;;;;;;;8.07;4.45;;;;;;;27.11;37.88;101169.13;143729;572;47002;-70
2021/07/25 02:50:17;;;;;;;7.80;4.50;;;;;;;27.12;37.89;101175.50;143716;594;50014;-69
2021/07/25 02:52:44;;;;;;;8.02;4.25;;;;;;;27.11;38.61;101184.88;143727;648;47002;-70
2021/07/25 02:55:12;;;;;;;5.53;4.53;;;;;;;26.93;37.83;101190.91;143728;586;45924;-71
2021/07/25 02:57:39;;;;;;;8.27;4.53;;;;;;;26.90;37.70;101199.81;143730;726;47006;-71
2021/07/25 03:00:08;;;;;;;6.30;4.78;;;;;;;27.02;38.01;101193.81;143725;589;47008;-69
2021/07/25 03:02:36;;;;;;;9.35;4.97;;;;;;;26.94;37.64;101198.06;143725;572;48006;-70
2021/07/25 03:05:04;;;;;;;5.57;4.78;;;;;;;26.98;37.87;101203.81;143726;574;46031;-70
2021/07/25 03:07:31;;;;;;;7.00;4.75;;;;;;;27.07;38.43;101206.72;143727;620;47004;-70
2021/07/25 03:09:58;;;;;;;6.90;4.82;;;;;;;27.14;38.30;101211.84;143727;674;47010;-70
2021/07/25 03:12:25;;;;;;;8.68;4.93;;;;;;;27.19;38.16;101220.03;143726;573;47004;-72
2021/07/25 03:14:53;;;;;;;6.00;4.72;;;;;;;27.19;38.35;101212.59;143728;608;45929;-71
2021/07/25 03:17:20;;;;;;;9.02;4.90;;;;;;;27.14;38.89;101215.41;143730;595;46004;-71
2021/07/25 03:19:48;;;;;;;8.65;5.22;;;;;;;27.14;38.67;101211.84;143727;589;47010;-69
2021/07/25 03:22:14;;;;;;;8.63;4.50;;;;;;;27.12;39.14;101223.16;143724;579;48014;-69
2021/07/25 03:24:42;;;;;;;7.65;4.22;;;;;;;27.12;39.30;101227.88;143722;596;48995;-71
2021/07/25 03:27:09;;;;;;;7.50;4.40;;;;;;;27.12;38.68;101233.37;143728;646;47004;-69
2021/07/25 03:29:36;;;;;;;9.75;4.75;;;;;;;27.08;39.87;101239.50;143726;573;47013;-69
2021/07/25 03:32:04;;;;;;;8.55;5.00;;;;;;;27.08;39.72;101239.50;143726;603;47002;-70
2021/07/25 03:34:32;;;;;;;6.62;5.10;;;;;;;27.11;39.71;101242.78;143726;581;47004;-69
2021/07/25 03:37:01;;;;;;;7.80;4.90;;;;;;;27.09;40.60;101241.13;143729;646;47002;-69
2021/07/25 03:39:30;;;;;;;11.40;5.87;;;;;;;27.07;40.55;101246.13;143726;591;47008;-70
2021/07/25 03:41:57;;;;;;;10.77;5.45;;;;;;;27.08;39.48;101247.75;143727;576;47006;-72
2021/07/25 03:44:24;;;;;;;9.68;4.93;;;;;;;27.06;40.38;101254.72;143726;568;47004;-70
2021/07/25 03:46:53;;;;;;;6.32;4.53;;;;;;;27.08;40.00;101252.47;143731;578;47002;-71
2021/07/25 03:49:20;;;;;;;5.25;4.70;;;;;;;27.05;40.18;101250.31;143727;618;46028;-70
2021/07/25 03:51:47;;;;;;;12.27;5.35;;;;;;;27.01;40.08;101255.56;143724;586;48004;-70
2021/07/25 03:54:15;;;;;;;8.40;4.90;;;;;;;27.03;39.87;101261.63;143718;577;49991;-69
2021/07/25 03:56:42;;;;;;;10.07;4.85;;;;;;;27.05;40.30;101264.91;143730;618;47002;-70
2021/07/25 03:59:09;;;;;;;8.40;5.00;;;;;;;27.09;40.24;101257.69;143725;580;48011;-69
2021/07/25 04:01:37;;;;;;;10.85;5.35;;;;;;;27.15;40.81;101268.63;143728;584;47006;-69
2021/07/25 04:04:04;;;;;;;8.68;5.85;;;;;;;27.17;40.90;101258.13;143728;605;46002;-69
2021/07/25 04:06:31;;;;;;;8.68;5.22;;;;;;;27.13;41.44;101265.34;143729;654;47005;-69
2021/07/25 04:08:59;;;;;;;10.88;4.97;;;;;;;27.06;41.66;101272.06;143726;595;47010;-69
2021/07/25 04:11:26;;;;;;;11.05;5.37;;;;;;;27.01;41.08;101263.84;143729;591;47004;-69
2021/07/25 04:13:54;;;;;;;16.27;5.53;;;;;;;27.04;41.01;101279.00;143728;567;45922;-72
2021/07/25 04:16:21;;;;;;;9.30;5.75;;;;;;;27.05;41.03;101275.13;143730;576;47002;-71
2021/07/25 04:18:48;;;;;;;7.35;5.22;;;;;;;27.08;41.59;101275.34;143722;615;48010;-69
2021/07/25 04:21:16;;;;;;;14.52;5.35;;;;;;;27.07;42.27;101278.41;143727;604;47002;-69
2021/07/25 04:23:43;;;;;;;13.70;6.00;;;;;;;27.04;42.13;101274.28;143726;582;45925;-70
2021/07/25 04:26:11;;;;;;;10.10;5.80;;;;;;;27.07;42.23;101289.44;143727;648;47008;-70
2021/07/25 04:28:38;;;;;;;10.80;5.85;;;;;;;27.12;42.48;101277.50;143715;602;50002;-70
2021/07/25 04:31:05;;;;;;;12.23;7.07;;;;;;;27.11;41.61;101284.13;143728;580;47002;-70
2021/07/25 04:33:33;;;;;;;7.90;6.20;;;;;;;27.18;41.21;101285.41;143727;569;46004;-69
2021/07/25 04:36:01;;;;;;;8.07;5.62;;;;;;;27.15;42.29;101288.75;143730;606;47004;-70
2021/07/25 04:38:28;;;;;;;8.98;5.50;;;;;;;27.10;42.58;101288.81;143726;588;47008;-69
2021/07/25 04:41:08;;;;;;;9.98;5.62;;;;;;;27.09;42.69;101288.00;143727;668;47004;-69
2021/07/25 04:43:37;;;;;;;6.93;4.93;;;;;;;27.17;42.21;101292.03;143727;567;45928;-70
2021/07/25 04:46:33;;;;;;;8.95;5.20;;;;;;;27.26;41.68;101294.13;143730;588;47002;-69
2021/07/25 04:49:11;;;;;;;11.02;5.57;;;;;;;27.31;42.71;101291.28;143726;575;47010;-70
2021/07/25 04:51:39;;;;;;;9.02;5.72;;;;;;;27.31;42.42;101294.03;143724;590;48004;-70
2021/07/25 04:54:09;;;;;;;7.87;5.95;;;;;;;27.32;41.57;101299.28;143729;687;45921;-70
2021/07/25 04:56:57;;;;;;;8.00;5.28;;;;;;;27.42;41.49;101302.97;143728;616;48003;-69
2021/07/25 04:59:51;;;;;;;10.02;5.20;;;;;;;27.48;42.55;101304.59;143725;607;47010;-69
2021/07/25 05:02:21;;;;;;;8.20;4.85;;;;;;;27.35;41.16;101297.84;143719;567;47004;-70
2021/07/25 05:04:49;;;;;;;8.82;5.30;;;;;;;27.32;41.68;101299.28;143728;624;45927;-70
2021/07/25 05:07:16;;;;;;;8.50;6.07;;;;;;;27.44;42.14;101300.75;143725;580;48002;-70
2021/07/25 05:09:45;;;;;;;6.25;5.12;;;;;;;27.52;41.40;101300.12;143727;618;47008;-70
2021/07/25 05:12:27;;;;;;;16.02;6.00;;;;;;;27.61;40.95;101306.59;143727;580;47005;-69
2021/07/25 05:15:15;;;;;;;7.85;5.32;;;;;;;27.71;41.76;101304.78;143725;590;47002;-70
2021/07/25 05:18:06;;;;;;;9.85;5.80;;;;;;;27.71;41.63;101305.59;143729;582;47002;-69
2021/07/25 05:21:02;;;;;;;11.23;4.78;;;;;;;27.81;40.74;101315.66;143724;573;48011;-70
2021/07/25 05:23:47;;;;;;;10.07;5.28;;;;;;;27.87;40.41;101314.47;143727;567;47002;-70
2021/07/25 05:26:15;;;;;;;7.32;5.18;;;;;;;27.95;40.44;101315.72;143726;644;46008;-69
2021/07/25 05:28:43;;;;;;;9.80;5.20;;;;;;;27.99;40.42;101325.00;143730;570;47002;-69
2021/07/25 05:31:11;;;;;;;5.93;5.12;;;;;;;28.04;40.01;101319.41;143720;600;49008;-70
2021/07/25 05:33:38;;;;;;;6.78;5.55;;;;;;;28.08;40.15;101328.72;143723;645;47006;-70
2021/07/25 05:36:05;;;;;;;9.70;5.75;;;;;;;28.15;39.93;101325.59;143721;676;50019;-69
2021/07/25 05:38:32;;;;;;;8.75;4.97;;;;;;;28.19;40.75;101329.41;143728;705;47004;-69
2021/07/25 05:40:59;;;;;;;9.43;5.32;;;;;;;28.19;40.41;101312.81;143723;612;48010;-69
2021/07/25 05:43:27;;;;;;;7.12;4.57;;;;;;;28.11;41.01;101322.63;143726;589;47002;-70
2021/07/25 05:45:54;;;;;;;9.07;5.40;;;;;;;28.21;40.54;101326.31;143727;573;46002;-70
2021/07/25 05:48:21;;;;;;;6.80;5.22;;;;;;;28.34;40.05;101322.75;143731;575;47004;-70
2021/07/25 05:50:50;;;;;;;8.15;4.87;;;;;;;28.44;40.42;101327.25;143727;578;47008;-70
2021/07/25 05:53:17;;;;;;;6.68;4.95;;;;;;;28.51;40.26;101337.91;143726;577;47006;-69
2021/07/25 05:55:44;;;;;;;8.43;5.03;;;;;;;28.58;40.20;101339.16;143727;605;46006;-72
2021/07/25 05:58:11;;;;;;;8.70;4.57;;;;;;;28.66;39.69;101345.94;143730;621;48006;-70
2021/07/25 06:00:38;;;;;;;7.35;4.40;;;;;;;28.67;40.04;101349.50;143725;583;47010;-70
2021/07/25 06:03:05;;;;;;;7.50;4.37;;;;;;;28.70;39.52;101352.47;143725;671;47933;-69
2021/07/25 06:05:34;;;;;;;9.63;4.15;;;;;;;28.78;39.75;101345.41;143729;572;45921;-69
2021/07/25 06:08:04;;;;;;;6.62;4.32;;;;;;;28.83;39.68;101347.28;143731;633;47004;-70
2021/07/25 06:10:32;;;;;;;6.28;4.28;;;;;;;28.86;39.45;101346.66;143721;566;49010;-69
2021/07/25 06:13:01;;;;;;;8.30;3.75;;;;;;;28.93;39.54;101349.81;143725;674;49006;-70
2021/07/25 06:15:30;;;;;;;5.95;3.95;;;;;;;28.98;39.68;101346.97;143727;707;47002;-70
2021/07/25 06:17:57;;;;;;;6.20;4.60;;;;;;;29.03;40.27;101343.25;143729;642;47004;-69
2021/07/25 06:20:24;;;;;;;5.22;3.72;;;;;;;29.10;39.99;101342.84;143729;587;47011;-70
2021/07/25 06:22:53;;;;;;;12.55;4.87;;;;;;;29.17;39.66;101354.31;143726;569;47005;-71
2021/07/25 06:25:23;;;;;;;10.23;4.47;;;;;;;29.24;40.06;101348.34;143728;566;46004;-69
2021/07/25 06:27:53;;;;;;;7.57;4.22;;;;;;;29.28;40.03;101355.72;143725;630;49006;-69
2021/07/25 06:30:21;;;;;;;9.30;4.25;;;;;;;29.28;39.60;101349.38;143725;588;48008;-70
2021/07/25 06:33:01;;;;;;;7.53;4.60;;;;;;;29.34;40.17;101348.94;143723;615;48004;-70
2021/07/25 06:35:41;;;;;;;8.35;3.92;;;;;;;29.36;39.41;101342.31;143728;702;46011;-69
2021/07/25 06:38:12;;;;;;;7.45;3.95;;;;;;;29.39;39.27;101350.81;143728;597;48006;-70
2021/07/25 06:40:44;;;;;;;5.22;3.78;;;;;;;29.44;39.68;101342.41;143722;603;48993;-70
2021/07/25 06:43:11;;;;;;;8.00;3.72;;;;;;;29.50;39.38;101351.38;143724;567;46933;-72
2021/07/25 06:45:38;;;;;;;6.22;4.03;;;;;;;29.44;39.26;101339.63;143729;615;45921;-69
2021/07/25 06:48:16;;;;;;;9.13;3.83;;;;;;;29.39;39.43;101350.81;143729;636;47004;-69
2021/07/25 06:50:43;;;;;;;5.93;3.80;;;;;;;29.45;39.38;101352.34;143726;588;47008;-70
2021/07/25 06:53:11;;;;;;;5.37;3.90;;;;;;;29.41;38.96;101350.47;143724;604;47002;-72
2021/07/25 06:55:38;;;;;;;6.65;3.90;;;;;;;29.31;38.96;101346.78;143730;618;45927;-69
2021/07/25 06:58:05;;;;;;;4.18;3.35;;;;;;;29.43;38.11;101348.22;143730;583;47004;-69
2021/07/25 07:00:32;;;;;;;8.38;3.80;;;;;;;29.56;37.88;101352.09;143724;684;48008;-70
2021/07/25 07:02:59;;;;;;;7.80;3.60;;;;;;;29.69;38.27;101355.94;143723;629;50006;-69
2021/07/25 07:05:29;;;;;;;8.88;3.75;;;;;;;29.75;38.47;101351.91;143731;601;45930;-69
2021/07/25 07:08:04;;;;;;;5.35;3.87;;;;;;;29.70;38.89;101358.38;143728;639;49002;-70
2021/07/25 07:10:33;;;;;;;6.25;3.30;;;;;;;29.60;37.87;101353.91;143727;621;46024;-70
2021/07/25 07:13:06;;;;;;;5.93;3.37;;;;;;;29.72;37.06;101358.87;143726;609;47002;-69
2021/07/25 07:15:35;;;;;;;4.82;3.12;;;;;;;29.79;37.29;101353.75;143725;576;46004;-69
2021/07/25 07:18:02;;;;;;;5.15;2.92;;;;;;;29.82;36.96;101357.81;143726;614;48026;-71
2021/07/25 07:20:30;;;;;;;6.70;3.20;;;;;;;29.83;38.17;101351.16;143725;580;47013;-71
2021/07/25 07:23:09;;;;;;;6.60;3.28;;;;;;;29.89;36.55;101352.69;143724;704;47002;-71
2021/07/25 07:25:41;;;;;;;7.12;4.53;;;;;;;29.95;36.87;101354.19;143728;624;45928;-70
2021/07/25 07:28:09;;;;;;;7.67;3.43;;;;;;;29.96;37.02;101360.56;143729;716;47002;-69
2021/07/25 07:30:37;;;;;;;4.15;3.22;;;;;;;29.89;36.90;101357.38;143724;591;47010;-70
2021/07/25 07:33:09;;;;;;;6.37;4.18;;;;;;;29.87;37.22;101359.63;143726;621;47006;-69
2021/07/25 07:35:36;;;;;;;5.37;3.50;;;;;;;29.90;36.18;101356.25;143725;595;47002;-70
2021/07/25 07:38:04;;;;;;;8.52;3.20;;;;;;;30.00;36.81;101355.22;143726;584;47000;-71
2021/07/25 07:40:32;;;;;;;4.70;3.40;;;;;;;30.16;36.49;101358.41;143723;573;47011;-71
2021/07/25 07:43:00;;;;;;;8.07;3.60;;;;;;;30.20;36.29;101351.06;143725;595;47002;-70
2021/07/25 07:45:28;;;;;;;6.10;3.72;;;;;;;30.16;36.96;101353.69;143720;595;48004;-69
2021/07/25 07:47:55;;;;;;;6.70;3.78;;;;;;;30.04;37.56;101359.78;143720;639;46007;-69
2021/07/25 07:50:22;;;;;;;6.72;3.67;;;;;;;30.08;38.22;101366.34;143722;605;47013;-69
2021/07/25 07:52:50;;;;;;;9.63;3.80;;;;;;;30.15;38.06;101370.62;143723;606;48004;-71
2021/07/25 07:55:18;;;;;;;7.18;3.70;;;;;;;30.27;37.84;101365.31;143726;643;45927;-68
2021/07/25 07:57:45;;;;;;;7.35;3.33;;;;;;;30.34;37.00;101362.91;143727;665;47002;-69
2021/07/25 08:00:14;;;;;;;5.37;3.22;;;;;;;30.35;37.21;101360.94;143725;574;47010;-70
2021/07/25 08:02:41;;;;;;;6.97;3.22;;;;;;;30.43;37.48;101365.72;143726;574;46013;-70
2021/07/25 08:05:10;;;;;;;9.00;3.37;;;;;;;30.42;37.75;101366.88;143725;618;47002;-68
2021/07/25 08:07:37;;;;;;;4.82;3.08;;;;;;;30.28;37.55;101360.56;143726;593;47002;-68
2021/07/25 08:10:06;;;;;;;3.67;3.35;;;;;;;30.25;37.55;101362.03;143721;588;48018;-70
2021/07/25 08:12:33;;;;;;;4.40;3.33;;;;;;;30.24;37.30;101364.00;143721;568;47006;-68
2021/07/25 08:15:01;;;;;;;5.82;3.45;;;;;;;30.32;36.15;101362.41;143727;611;46004;-69
2021/07/25 08:17:28;;;;;;;4.80;3.00;;;;;;;30.38;35.13;101360.31;143727;567;47004;-70
2021/07/25 08:19:55;;;;;;;6.72;3.40;;;;;;;30.43;35.21;101360.19;143724;621;47011;-69
2021/07/25 08:22:23;;;;;;;6.45;3.17;;;;;;;30.59;34.76;101357.81;143698;596;49017;-68
2021/07/25 08:24:50;;;;;;;3.87;3.30;;;;;;;30.72;33.76;101356.09;143724;594;46002;-70
2021/07/25 08:27:17;;;;;;;6.62;4.03;;;;;;;30.91;33.71;101355.00;143725;607;47004;-71
2021/07/25 08:29:45;;;;;;;4.72;3.20;;;;;;;30.93;33.03;101349.94;143724;656;48012;-70
2021/07/25 08:32:12;;;;;;;7.10;3.33;;;;;;;30.98;32.64;101342.28;143724;558;46575;-70
2021/07/25 08:34:39;;;;;;;8.93;3.50;;;;;;;30.99;32.46;101343.94;143723;594;47008;-70
2021/07/25 08:37:07;;;;;;;4.57;3.20;;;;;;;31.13;32.02;101342.97;143727;642;47002;-69
2021/07/25 08:39:34;;;;;;;4.18;3.05;;;;;;;31.07;31.58;101352.56;143724;665;47010;-69
2021/07/25 08:42:08;;;;;;;8.13;3.03;;;;;;;31.05;31.57;101355.69;143722;577;47010;-70
2021/07/25 08:44:58;;;;;;;3.65;2.80;;;;;;;31.10;31.79;101338.06;143726;579;45921;-70
2021/07/25 08:47:43;;;;;;;4.75;2.65;;;;;;;31.32;31.54;101339.94;143725;582;48008;-70
2021/07/25 08:50:19;;;;;;;3.90;2.80;;;;;;;31.47;31.31;101346.13;143725;575;47013;-69
2021/07/25 08:52:53;;;;;;;6.47;2.78;;;;;;;31.39;30.74;101350.53;143722;608;47002;-69
2021/07/25 08:55:21;;;;;;;4.72;2.95;;;;;;;31.42;30.30;101347.09;143726;583;46004;-69
2021/07/25 08:57:51;;;;;;;9.68;3.70;;;;;;;31.38;31.39;101341.38;143725;596;47004;-69
2021/07/25 09:00:21;;;;;;;5.30;3.17;;;;;;;31.35;32.30;101342.03;143725;567;47008;-69
2021/07/25 09:02:49;;;;;;;5.30;3.40;;;;;;;31.27;32.16;101348.41;143725;567;47004;-70
2021/07/25 09:05:17;;;;;;;5.78;3.20;;;;;;;31.00;31.52;101353.06;143726;661;45922;-70
2021/07/25 09:07:48;;;;;;;9.30;3.53;;;;;;;31.09;32.30;101340.03;143728;569;47004;-71
2021/07/25 09:10:17;;;;;;;5.37;2.80;;;;;;;31.11;32.51;101348.84;143726;596;47011;-68
2021/07/25 09:12:46;;;;;;;7.32;3.05;;;;;;;31.06;32.06;101353.75;143724;583;47002;-71
2021/07/25 09:15:34;;;;;;;11.00;3.30;;;;;;;30.81;34.95;101359.69;143720;567;48927;-69
2021/07/25 09:18:03;;;;;;;5.97;3.33;;;;;;;30.67;36.35;101348.75;143726;567;47006;-69
2021/07/25 09:20:32;;;;;;;9.05;3.35;;;;;;;30.88;37.12;101345.37;143723;578;47999;-69
2021/07/25 09:23:20;;;;;;;4.62;3.50;;;;;;;30.95;37.69;101342.94;143722;582;48006;-69
2021/07/25 09:25:57;;;;;;;6.43;3.30;;;;;;;30.99;36.54;101360.56;143720;596;47003;-69
2021/07/25 09:28:36;;;;;;;3.85;2.80;;;;;;;31.13;35.71;101346.59;143731;607;45012;-69
2021/07/25 09:31:29;;;;;;;5.75;3.22;;;;;;;31.26;35.08;101346.78;143724;700;47012;-69
2021/07/25 09:33:56;;;;;;;6.15;3.03;;;;;;;31.17;35.61;101345.94;143724;582;47002;-71
2021/07/25 09:36:24;;;;;;;8.60;3.72;;;;;;;31.22;34.42;101329.97;143724;621;46004;-68
2021/07/25 09:38:55;;;;;;;4.72;3.03;;;;;;;31.30;33.47;101337.47;143728;616;47004;-70
2021/07/25 09:41:23;;;;;;;9.07;2.83;;;;;;;31.36;33.40;101342.88;143725;728;47006;-68
2021/07/25 09:44:08;;;;;;;5.72;2.67;;;;;;;31.21;34.26;101349.69;143724;573;47002;-68
2021/07/25 09:46:51;;;;;;;4.93;2.35;;;;;;;31.25;34.12;101340.38;143723;734;49002;-71
2021/07/25 09:49:18;;;;;;;3.93;2.70;;;;;;;31.38;34.07;101341.38;143729;577;47004;-69
2021/07/25 09:51:46;;;;;;;5.90;3.03;;;;;;;31.29;33.13;101333.06;143718;588;49008;-69
2021/07/25 09:54:14;;;;;;;7.22;2.80;;;;;;;31.39;33.00;101342.22;143727;585;47009;-69
2021/07/25 09:56:42;;;;;;;3.08;2.28;;;;;;;31.45;32.78;101346.44;143723;583;48005;-69
2021/07/25 09:59:34;;;;;;;5.43;2.87;;;;;;;31.55;33.00;101340.59;143729;651;47002;-68
2021/07/25 10:02:01;;;;;;;7.97;2.87;;;;;;;31.81;32.85;101336.97;143725;585;47010;-68
2021/07/25 10:04:28;;;;;;;5.28;3.20;;;;;;;31.93;31.79;101349.41;143724;639;47002;-69
2021/07/25 10:06:56;;;;;;;5.62;2.62;;;;;;;31.77;32.16;101349.91;143725;613;46002;-69
2021/07/25 10:09:24;;;;;;;4.82;3.00;;;;;;;31.68;31.81;101344.31;143727;577;47002;-70
2021/07/25 10:11:58;;;;;;;4.40;2.90;;;;;;;31.72;32.09;101333.41;143725;580;47008;-69
2021/07/25 10:14:29;;;;;;;5.62;2.60;;;;;;;31.79;31.38;101344.81;143724;646;47015;-69
2021/07/25 10:16:59;;;;;;;4.60;2.75;;;;;;;31.94;30.91;101340.72;143726;580;45921;-72
2021/07/25 10:19:41;;;;;;;7.20;3.67;;;;;;;32.00;30.81;101330.25;143728;573;47002;-69
2021/07/25 10:22:15;;;;;;;9.77;3.10;;;;;;;32.21;31.20;101333.94;143717;585;48010;-71
2021/07/25 10:24:45;;;;;;;6.95;3.30;;;;;;;32.28;31.11;101333.47;143721;768;47002;-69
2021/07/25 10:27:19;;;;;;;5.05;3.17;;;;;;;32.31;31.25;101324.47;143718;572;49006;-69
2021/07/25 10:29:51;;;;;;;3.90;3.15;;;;;;;32.37;30.48;101329.84;143728;579;47006;-69
2021/07/25 10:32:22;;;;;;;5.37;3.25;;;;;;;32.31;30.42;101332.81;143724;574;47010;-69
2021/07/25 10:34:50;;;;;;;3.55;2.60;;;;;;;32.35;30.78;101319.88;143725;572;47004;-70
2021/07/25 10:37:20;;;;;;;9.07;3.00;;;;;;;32.34;30.49;101320.19;143726;566;45927;-70
2021/07/25 10:39:51;;;;;;;4.70;3.12;;;;;;;32.31;29.99;101324.47;143728;567;47002;-70
2021/07/25 10:42:23;;;;;;;4.25;2.67;;;;;;;32.30;31.26;101313.69;143724;591;48010;-69
2021/07/25 10:44:50;;;;;;;4.00;3.03;;;;;;;32.45;30.67;101331.75;143725;577;47002;-69
2021/07/25 10:47:28;;;;;;;5.47;3.00;;;;;;;32.31;31.06;101318.06;143725;588;45925;-69
2021/07/25 10:50:07;;;;;;;5.10;2.70;;;;;;;32.36;29.86;101323.47;143727;632;47004;-69
2021/07/25 10:53:20;;;;;;;6.00;3.00;;;;;;;32.31;31.26;101307.78;143720;590;49002;-68
2021/07/25 10:55:48;;;;;;;5.95;3.30;;;;;;;32.48;30.02;101306.06;143724;586;47004;-69
2021/07/25 10:58:23;;;;;;;4.35;2.65;;;;;;;32.44;29.79;101307.87;143727;582;45921;-69
2021/07/25 11:00:54;;;;;;;4.85;3.22;;;;;;;32.49;30.08;101302.94;143724;607;48012;-69
2021/07/25 11:03:50;;;;;;;4.57;3.10;;;;;;;32.42;29.62;101299.06;143721;620;48011;-69
2021/07/25 11:06:18;;;;;;;5.30;3.35;;;;;;;32.50;30.01;101296.25;143724;602;48004;-70
2021/07/25 11:08:47;;;;;;;4.62;3.17;;;;;;;32.49;30.43;101299.38;143726;620;46002;-70
2021/07/25 11:11:54;;;;;;;9.80;2.92;;;;;;;32.49;30.22;101293.81;143726;592;47005;-70
2021/07/25 11:14:59;;;;;;;5.62;3.50;;;;;;;32.54;30.34;101279.72;143725;572;47010;-69
2021/07/25 11:17:53;;;;;;;5.10;3.70;;;;;;;32.52;29.92;101298.69;143722;582;48005;-69
2021/07/25 11:20:58;;;;;;;5.80;3.58;;;;;;;32.44;30.36;101289.25;143728;590;46002;-68
2021/07/25 11:23:35;;;;;;;5.75;2.90;;;;;;;32.47;30.16;101277.47;143728;595;47002;-69
2021/07/25 11:26:35;;;;;;;3.60;3.12;;;;;;;32.41;30.98;101292.69;143723;579;48010;-70
2021/07/25 11:29:06;;;;;;;5.68;2.87;;;;;;;32.46;30.58;101277.78;143724;593;47006;-69
2021/07/25 11:31:37;;;;;;;4.15;2.95;;;;;;;32.49;30.00;101279.91;143726;601;46002;-71
2021/07/25 11:34:07;;;;;;;8.05;3.50;;;;;;;32.45;30.72;101282.53;143728;572;47004;-69
2021/07/25 11:36:35;;;;;;;6.12;3.35;;;;;;;32.61;29.83;101281.97;143716;612;48013;-69
2021/07/25 11:39:04;;;;;;;4.45;3.40;;;;;;;32.76;29.58;101288.88;143726;569;47002;-70
2021/07/25 11:41:36;;;;;;;5.32;3.05;;;;;;;32.51;30.97;101285.94;143726;605;45927;-69
2021/07/25 11:44:10;;;;;;;4.15;3.00;;;;;;;32.45;31.69;101287.28;143727;578;47012;-70